Time;durP1;ratioP1;P1;durP2;ratioP2;P2;SDS_P1;SDS_P2;PMS_P1;PMS_P2;Temp;Humidity;BMP_temperature;BMP_pressure;BME280_temperature;BME280_humidity;BME280_pressure;Samples;Min_cycle;Max_cycle;Signal;HPM_P1;HPM_P2
2022/02/09 00:01:58;;;;;;;42.53;20.60;;;;;;;-2.00;100.00;93794.94;5112440;28;20040;-79
2022/02/09 00:04:30;;;;;;;47.25;23.45;;;;;;;-1.83;100.00;93811.25;5112650;28;20044;-79
2022/02/09 00:07:06;;;;;;;47.85;22.77;;;;;;;-1.89;100.00;93811.75;5112619;27;20040;-79
2022/02/09 00:09:32;;;;;;;;;;;;;;;-1.82;100.00;93812.84;5113255;28;20040;-79
2022/02/09 00:12:06;;;;;;;58.20;25.02;;;;;;;-1.86;100.00;93825.81;5112130;28;19929;-79
2022/02/09 00:14:43;;;;;;;77.47;34.75;;;;;;;-1.83;100.00;93826.38;5112518;28;20503;-80
2022/02/09 00:17:34;;;;;;;38.03;16.73;;;;;;;-1.84;100.00;93824.78;5112265;28;20054;-79
2022/02/09 00:20:29;;;;;;;27.15;13.13;;;;;;;-1.96;100.00;93816.44;5112178;28;20498;-79
2022/02/09 00:23:31;;;;;;;20.23;10.13;;;;;;;-1.99;100.00;93828.47;5111933;28;20850;-79
2022/02/09 00:37:38;;;;;;;19.13;8.45;;;;;;;-1.90;100.00;93851.22;5111922;28;20082;-80
2022/02/09 00:40:30;;;;;;;19.15;8.70;;;;;;;-1.99;100.00;93846.88;5112226;28;20048;-80
2022/02/09 01:38:43;;;;;;;25.35;12.25;;;;;;;-2.36;100.00;93837.88;5105778;28;19922;-81
2022/02/09 01:55:32;;;;;;;23.55;12.40;;;;;;;-2.21;100.00;93833.44;5110368;28;20092;-83
2022/02/09 01:57:59;;;;;;;20.92;10.27;;;;;;;-2.23;100.00;93825.19;5110442;28;20043;-81
2022/02/09 02:00:27;;;;;;;14.13;7.90;;;;;;;-2.11;100.00;93842.78;5110603;28;20058;-81
2022/02/09 02:02:54;;;;;;;19.13;9.35;;;;;;;-2.20;100.00;93845.09;5110315;28;20535;-80
2022/02/09 02:05:21;;;;;;;14.50;8.57;;;;;;;-2.19;100.00;93828.25;5110200;28;20562;-80
2022/02/09 02:07:51;;;;;;;19.02;10.10;;;;;;;-2.07;100.00;93851.72;5109853;28;20044;-81
2022/02/09 02:10:30;;;;;;;16.40;9.65;;;;;;;-2.10;100.00;93844.38;5110600;28;20491;-81
2022/02/09 02:13:12;;;;;;;16.83;8.57;;;;;;;-2.02;100.00;93855.50;5110826;28;20134;-80
2022/02/09 02:18:21;;;;;;;18.65;7.72;;;;;;;-1.99;100.00;93858.69;5107741;28;20051;-80
2022/02/09 02:21:00;;;;;;;14.30;7.18;;;;;;;-1.95;100.00;93863.34;5110451;28;20035;-80
2022/02/09 02:23:42;;;;;;;15.98;7.43;;;;;;;-1.95;100.00;93860.06;5109741;28;20098;-80
2022/02/09 02:26:21;;;;;;;16.95;8.98;;;;;;;-1.96;100.00;93855.91;5110285;28;20164;-81
2022/02/09 02:29:08;;;;;;;18.58;8.65;;;;;;;-1.85;100.00;93880.28;5112820;27;20044;-81
2022/02/09 02:40:22;;;;;;;18.33;9.45;;;;;;;-1.72;100.00;93845.69;5064693;28;20487;-80
2022/02/09 02:57:06;;;;;;;18.05;9.05;;;;;;;-1.59;100.00;93867.44;5148194;27;20450;-78
2022/02/09 02:59:42;;;;;;;13.60;6.43;;;;;;;-1.63;100.00;93876.91;5128180;27;20379;-79
2022/02/09 03:13:13;;;;;;;15.50;8.75;;;;;;;-1.59;100.00;93885.06;5076890;28;20039;-82
2022/02/09 03:15:47;;;;;;;14.65;8.10;;;;;;;-1.53;100.00;93882.84;5126816;28;20047;-82
2022/02/09 03:18:39;;;;;;;17.95;9.50;;;;;;;-1.67;100.00;93855.41;5126983;28;20040;-82
2022/02/09 03:21:18;;;;;;;21.05;10.00;;;;;;;-1.50;100.00;93885.16;5124835;28;20046;-82
2022/02/09 03:23:49;;;;;;;19.05;10.45;;;;;;;-1.79;100.00;93844.56;5115085;28;20043;-83
2022/02/09 03:42:56;;;;;;;25.20;11.43;;;;;;;-1.55;100.00;93873.81;5116562;28;20047;-82
2022/02/09 03:48:23;;;;;;;20.55;10.95;;;;;;;-1.45;100.00;93879.75;5116692;28;20062;-81
2022/02/09 03:53:56;;;;;;;41.83;22.95;;;;;;;-1.23;100.00;93893.19;5049343;27;2038305;-80
2022/02/09 03:56:30;;;;;;;45.88;24.65;;;;;;;-1.33;100.00;93872.13;5097380;28;20120;-80
2022/02/09 03:58:57;;;;;;;45.05;24.85;;;;;;;-1.19;100.00;93886.19;5095070;28;20047;-80
2022/02/09 04:01:28;;;;;;;35.03;19.88;;;;;;;-1.19;100.00;93893.75;5095552;28;20044;-80
2022/02/09 04:03:55;;;;;;;30.10;15.23;;;;;;;-1.13;100.00;93885.69;5088527;28;20040;-79
2022/02/09 04:06:21;;;;;;;25.15;13.40;;;;;;;-1.27;100.00;93859.88;5086642;28;20051;-80
2022/02/09 04:08:54;;;;;;;21.75;13.43;;;;;;;-1.15;100.00;93872.41;5086507;28;20049;-80
2022/02/09 04:11:26;;;;;;;21.40;11.65;;;;;;;-1.04;100.00;93887.50;5086630;28;20040;-81
2022/02/09 04:14:02;;;;;;;20.17;11.32;;;;;;;-1.03;100.00;93889.09;5086702;28;20044;-82
2022/02/09 04:16:42;;;;;;;15.63;10.65;;;;;;;-1.04;100.00;93895.06;5086728;28;20395;-82
2022/02/09 04:19:20;;;;;;;18.67;10.45;;;;;;;-1.17;100.00;93867.50;5086421;28;20043;-81
2022/02/09 04:38:20;;;;;;;31.55;16.15;;;;;;;-0.72;100.00;93889.19;5064775;28;20187;-82
2022/02/09 04:44:06;;;;;;;23.58;12.95;;;;;;;-0.59;100.00;93893.22;5106424;27;20373;-78
2022/02/09 04:52:16;;;;;;;31.77;15.77;;;;;;;-0.48;100.00;93894.88;5085361;28;20056;-79
2022/02/09 04:54:48;;;;;;;31.23;17.75;;;;;;;-0.42;100.00;93897.69;5107293;28;20051;-79
2022/02/09 04:57:27;;;;;;;39.67;22.08;;;;;;;-0.43;100.00;93895.28;5107304;28;20048;-79
2022/02/09 05:00:09;;;;;;;46.88;27.38;;;;;;;-0.51;100.00;93878.25;5106935;28;20444;-79
2022/02/09 05:03:05;;;;;;;50.97;26.25;;;;;;;-0.36;100.00;93890.56;5107014;28;20194;-80
2022/02/09 05:24:47;;;;;;;33.60;19.52;;;;;;;-0.27;100.00;93910.78;5106210;28;20051;-79
2022/02/09 05:27:20;;;;;;;35.75;19.33;;;;;;;-0.34;100.00;93921.50;5106425;28;20075;-79
2022/02/09 05:29:47;;;;;;;31.02;16.13;;;;;;;-0.33;100.00;93921.38;5106589;28;20403;-79
2022/02/09 05:32:15;;;;;;;28.48;14.38;;;;;;;-0.37;100.00;93916.72;5106082;28;20472;-79
2022/02/09 05:34:42;;;;;;;27.63;15.95;;;;;;;-0.28;100.00;93919.28;5106318;28;20044;-78
2022/02/09 05:37:09;;;;;;;32.20;17.13;;;;;;;-0.34;100.00;93904.66;5106500;28;20048;-79
2022/02/09 05:39:36;;;;;;;29.10;16.15;;;;;;;-0.19;100.00;93912.69;5106397;28;20047;-78
2022/02/09 05:42:08;;;;;;;30.02;16.52;;;;;;;-0.42;100.00;93871.66;5106192;28;20056;-79
2022/02/09 05:44:34;;;;;;;28.75;15.57;;;;;;;-0.15;100.00;93920.81;5094494;28;20144;-79
2022/02/09 05:47:48;;;;;;;25.17;14.73;;;;;;;-0.07;100.00;93921.00;5106006;28;20475;-79
2022/02/09 05:50:13;;;;;;;33.70;19.15;;;;;;;-0.02;100.00;93920.59;5106159;28;20440;-79
2022/02/09 05:52:57;;;;;;;38.40;20.80;;;;;;;-0.13;100.00;93906.34;5106086;28;20051;-79
2022/02/09 05:55:37;;;;;;;42.70;21.45;;;;;;;-0.23;100.00;93880.25;5092247;28;20102;-78
2022/02/09 05:58:09;;;;;;;33.72;16.95;;;;;;;0.01;100.00;93922.06;5092324;28;20048;-79
2022/02/09 06:00:36;;;;;;;24.55;12.77;;;;;;;-0.01;100.00;93924.72;5092452;28;20357;-79
2022/02/09 06:03:03;;;;;;;21.13;11.80;;;;;;;0.03;100.00;93930.31;5092129;28;20040;-79
2022/02/09 06:05:31;;;;;;;16.92;8.38;;;;;;;-0.04;100.00;93933.34;5092078;28;20479;-78
2022/02/09 06:07:59;;;;;;;27.52;13.85;;;;;;;-0.02;100.00;93935.75;5092296;28;20047;-78
2022/02/09 06:10:29;;;;;;;7.85;5.35;;;;;;;-0.18;100.00;93937.00;5092029;28;20558;-78
2022/02/09 06:13:10;;;;;;;8.48;5.43;;;;;;;-0.06;100.00;93937.75;5091976;28;20907;-78
2022/02/09 06:21:07;;;;;;;15.57;8.13;;;;;;;0.02;100.00;93948.94;5091897;28;20523;-78
2022/02/09 06:23:34;;;;;;;14.75;8.25;;;;;;;0.10;100.00;93962.53;5091653;28;20380;-78
2022/02/09 06:26:01;;;;;;;14.95;9.15;;;;;;;0.22;100.00;93948.09;5091676;28;20040;-78
2022/02/09 06:28:29;;;;;;;15.73;10.07;;;;;;;0.28;100.00;93966.19;5091953;28;20044;-78
2022/02/09 06:30:56;;;;;;;15.88;7.30;;;;;;;0.22;100.00;93952.31;5091900;28;20361;-78
2022/02/09 06:33:23;;;;;;;12.93;8.23;;;;;;;0.31;100.00;93968.44;5091940;28;20040;-78
2022/02/09 06:35:52;;;;;;;14.15;8.10;;;;;;;0.37;100.00;93965.44;5091856;28;20082;-78
2022/02/09 06:38:21;;;;;;;12.45;7.05;;;;;;;0.47;100.00;93961.19;5091695;28;20372;-78
2022/02/09 06:40:53;;;;;;;11.38;6.90;;;;;;;0.58;100.00;93962.00;5091498;28;20085;-78
2022/02/09 06:43:20;;;;;;;11.27;6.93;;;;;;;0.68;100.00;93967.91;5090990;28;20131;-76
2022/02/09 06:45:47;;;;;;;12.63;7.70;;;;;;;0.72;100.00;93969.25;5091670;28;20052;-76
2022/02/09 06:48:15;;;;;;;17.70;9.05;;;;;;;0.76;100.00;93964.72;5091583;28;20044;-76
2022/02/09 06:50:46;;;;;;;22.15;12.73;;;;;;;0.75;100.00;93963.91;5091451;28;20060;-76
2022/02/09 06:53:27;;;;;;;11.82;6.80;;;;;;;0.69;100.00;93951.78;5091526;28;20044;-76
2022/02/09 06:55:57;;;;;;;16.38;9.57;;;;;;;0.78;100.00;93970.44;5091523;28;20071;-75
2022/02/09 06:58:43;;;;;;;11.10;6.25;;;;;;;0.60;100.00;93968.53;5091082;28;20564;-76
2022/02/09 07:01:11;;;;;;;8.65;4.82;;;;;;;0.47;100.00;93968.75;5090992;28;20040;-76
2022/02/09 07:03:38;;;;;;;11.73;6.60;;;;;;;0.49;100.00;93977.03;5091046;28;20410;-76
2022/02/09 07:06:06;;;;;;;17.85;11.50;;;;;;;0.51;100.00;93975.16;5090138;28;20044;-76
2022/02/09 07:08:33;;;;;;;15.82;10.52;;;;;;;0.59;100.00;93972.00;5091208;28;20083;-76
2022/02/09 07:11:01;;;;;;;22.08;15.10;;;;;;;0.57;100.00;93962.94;5090557;28;20090;-76
2022/02/09 07:13:28;;;;;;;16.80;10.27;;;;;;;0.74;100.00;93969.13;5090972;28;20066;-76
2022/02/09 07:16:01;;;;;;;19.30;12.15;;;;;;;0.75;100.00;93971.50;5091006;28;20044;-76
2022/02/09 07:18:28;;;;;;;17.50;10.52;;;;;;;0.71;100.00;93967.66;5091118;28;20044;-76
2022/02/09 07:20:59;;;;;;;15.27;9.10;;;;;;;0.75;100.00;93965.66;5090786;28;20075;-75
2022/02/09 07:23:31;;;;;;;16.27;9.80;;;;;;;0.75;100.00;93966.44;5090502;28;20048;-77
2022/02/09 07:26:06;;;;;;;16.02;7.90;;;;;;;0.70;100.00;93945.81;5090399;28;20051;-77
2022/02/09 07:28:35;;;;;;;27.60;16.17;;;;;;;0.75;100.00;93958.06;5090499;28;20491;-77
2022/02/09 07:31:04;;;;;;;36.95;22.25;;;;;;;0.95;100.00;93969.00;5090821;28;20388;-78
2022/02/09 07:33:31;;;;;;;40.38;25.08;;;;;;;0.93;100.00;93964.06;5090351;28;20072;-77
2022/02/09 07:35:58;;;;;;;39.25;23.67;;;;;;;1.06;100.00;93973.94;5090127;28;20484;-78
2022/02/09 07:38:24;;;;;;;16.92;10.95;;;;;;;1.09;100.00;93975.41;5090381;28;20040;-77
2022/02/09 07:40:57;;;;;;;15.93;9.27;;;;;;;0.97;100.00;93956.22;5090716;28;20116;-77
2022/02/09 07:43:27;;;;;;;18.60;9.38;;;;;;;1.03;100.00;93969.13;5090340;28;20055;-77
2022/02/09 07:46:16;;;;;;;14.02;8.77;;;;;;;1.01;100.00;93975.25;5090559;28;20373;-77
2022/02/09 07:48:55;;;;;;;17.08;10.25;;;;;;;1.07;100.00;93979.81;5090597;28;20496;-77
2022/02/09 07:51:40;;;;;;;24.70;14.13;;;;;;;1.06;100.00;93976.47;5090459;28;20036;-77
2022/02/09 07:54:08;;;;;;;30.25;17.85;;;;;;;1.17;100.00;93980.59;5090075;28;20044;-77
2022/02/09 07:56:36;;;;;;;27.70;16.50;;;;;;;1.20;100.00;93975.28;5090318;28;20048;-77
2022/02/09 07:59:07;;;;;;;29.38;16.30;;;;;;;1.17;100.00;93970.47;5090226;28;20044;-77
2022/02/09 08:01:36;;;;;;;33.03;19.33;;;;;;;1.17;100.00;93959.56;5089982;28;20055;-77
2022/02/09 08:04:03;;;;;;;27.15;16.30;;;;;;;1.32;100.00;93970.91;5089739;28;20051;-77
2022/02/09 08:06:30;;;;;;;28.08;15.77;;;;;;;1.42;100.00;93990.31;5090127;28;20059;-78
2022/02/09 08:09:01;;;;;;;18.58;12.45;;;;;;;1.39;100.00;93988.06;5089926;28;20047;-77
2022/02/09 08:11:34;;;;;;;21.48;15.32;;;;;;;1.42;100.00;93990.31;5089754;28;20051;-78
2022/02/09 08:27:45;;;;;;;19.05;11.75;;;;;;;1.62;100.00;93978.44;5089359;28;20040;-78
2022/02/09 08:30:32;;;;;;;30.27;18.20;;;;;;;1.69;100.00;93977.00;5089925;28;20139;-78
2022/02/09 08:33:06;;;;;;;26.17;16.23;;;;;;;1.73;100.00;93980.81;5089703;28;20047;-79
2022/02/09 08:35:34;;;;;;;31.35;17.17;;;;;;;1.57;100.00;93980.63;5089719;28;20040;-79
2022/02/09 08:38:01;;;;;;;27.92;15.23;;;;;;;1.52;100.00;93968.34;5089616;28;20044;-79
2022/02/09 08:40:29;;;;;;;27.60;14.18;;;;;;;1.59;100.00;93982.03;5089473;28;20036;-80
2022/02/09 08:42:58;;;;;;;34.60;15.80;;;;;;;1.71;100.00;93987.78;5089180;28;20098;-80
2022/02/09 08:45:24;;;;;;;30.88;14.18;;;;;;;1.76;100.00;93979.75;5089394;28;20036;-80
2022/02/09 08:47:52;;;;;;;17.58;8.35;;;;;;;1.79;100.00;93984.56;5089459;28;20503;-81
2022/02/09 08:50:22;;;;;;;14.35;6.28;;;;;;;1.78;100.00;93990.56;5089415;28;20047;-81
2022/02/09 08:52:49;;;;;;;15.27;6.30;;;;;;;1.75;100.00;93990.84;5086422;28;20441;-81
2022/02/09 08:55:16;;;;;;;17.73;7.10;;;;;;;1.66;100.00;93997.50;5087928;28;20159;-80
2022/02/09 08:57:43;;;;;;;19.52;10.63;;;;;;;1.62;100.00;93996.16;5089085;28;20040;-81
2022/02/09 09:00:18;;;;;;;21.88;12.45;;;;;;;1.58;100.00;93999.94;5089346;28;20044;-82
2022/02/09 09:02:49;;;;;;;26.88;12.95;;;;;;;1.44;100.00;93965.69;5089022;28;20495;-81
2022/02/09 09:05:21;;;;;;;24.02;14.02;;;;;;;1.64;100.00;93999.38;5089032;28;20040;-82
2022/02/09 09:07:55;;;;;;;19.85;12.13;;;;;;;1.71;100.00;94002.97;5089265;28;20048;-82
2022/02/09 09:10:29;;;;;;;23.13;12.73;;;;;;;1.65;100.00;93992.56;5089417;28;20052;-82
2022/02/09 09:19:22;;;;;;;28.65;15.88;;;;;;;1.89;100.00;93976.16;5046198;28;20041;-83
2022/02/09 10:03:30;;;;;;;20.85;10.93;;;;;;;2.84;100.00;93998.06;5049227;28;20055;-82
2022/02/09 10:34:22;;;;;;;22.20;10.48;;;;;;;2.96;100.00;93993.59;5090884;28;20500;-82
2022/02/09 10:36:53;;;;;;;21.50;10.30;;;;;;;2.85;100.00;93976.81;5091095;28;20040;-82
2022/02/09 10:39:30;;;;;;;20.52;8.95;;;;;;;2.98;100.00;93984.91;5091115;28;20460;-82
2022/02/09 10:42:04;;;;;;;18.60;7.43;;;;;;;3.00;100.00;93990.63;5090408;28;20051;-81
2022/02/09 10:44:44;;;;;;;23.70;9.27;;;;;;;2.97;100.00;93975.69;5090352;28;20102;-82
2022/02/09 10:47:21;;;;;;;24.48;9.75;;;;;;;3.02;100.00;93993.78;5090114;28;20050;-82
2022/02/09 10:50:11;;;;;;;19.42;9.20;;;;;;;3.04;100.00;93991.13;5090298;28;20040;-81
2022/02/09 10:52:41;;;;;;;25.00;9.98;;;;;;;2.89;100.00;93967.97;5090247;28;20050;-82
2022/02/09 10:55:26;;;;;;;21.77;8.95;;;;;;;2.96;100.00;93983.44;5090712;28;20078;-82
2022/02/09 10:57:53;;;;;;;17.15;8.40;;;;;;;2.76;100.00;93951.38;5076470;28;20051;-81
2022/02/09 11:00:20;;;;;;;20.95;9.95;;;;;;;2.86;100.00;93980.97;5069872;28;20434;-81
2022/02/09 11:02:49;;;;;;;52.13;24.10;;;;;;;2.73;100.00;93955.94;5070369;28;20537;-81
2022/02/09 11:05:19;;;;;;;62.03;33.58;;;;;;;2.89;100.00;93989.09;5069912;28;20463;-82
2022/02/09 11:07:46;;;;;;;31.33;16.15;;;;;;;2.91;100.00;93984.66;5069073;28;20518;-82
2022/02/09 11:10:13;;;;;;;23.33;8.73;;;;;;;2.60;100.00;93982.41;5069644;28;20040;-83
2022/02/09 11:12:41;;;;;;;16.23;6.80;;;;;;;2.49;100.00;93980.88;5069655;28;20053;-83
2022/02/09 11:15:10;;;;;;;20.63;8.65;;;;;;;2.54;100.00;93985.50;5070063;28;20051;-82
2022/02/09 11:17:39;;;;;;;14.50;5.95;;;;;;;2.20;100.00;93958.97;5070043;28;20048;-83
2022/02/09 11:20:10;;;;;;;6.03;3.35;;;;;;;2.19;100.00;93982.75;5069416;28;21137;-82
2022/02/09 11:22:44;;;;;;;10.32;4.82;;;;;;;2.00;100.00;93951.44;5069073;28;20044;-82
2022/02/09 11:25:16;;;;;;;5.47;3.63;;;;;;;2.11;100.00;93975.81;5070013;28;20044;-82
2022/02/09 11:27:51;;;;;;;14.70;5.63;;;;;;;2.17;100.00;93987.13;5068405;28;20106;-82
2022/02/09 11:30:27;;;;;;;10.80;4.72;;;;;;;2.00;100.00;93976.00;5070345;28;20051;-82
2022/02/09 11:33:09;;;;;;;7.70;4.20;;;;;;;2.08;100.00;93977.84;5069682;28;20124;-82
2022/02/09 11:35:58;;;;;;;6.38;3.30;;;;;;;1.78;100.00;93921.38;5073754;28;20675;-82
2022/02/09 11:38:38;;;;;;;8.68;4.20;;;;;;;1.90;100.00;93944.81;5087740;28;20504;-82
2022/02/09 11:41:16;;;;;;;8.88;4.40;;;;;;;2.17;100.00;93977.00;5089801;28;20051;-82
2022/02/09 11:43:50;;;;;;;5.43;2.72;;;;;;;2.15;100.00;93978.88;5090245;28;20054;-82
2022/02/09 11:46:58;;;;;;;9.35;4.32;;;;;;;2.22;100.00;93969.78;5090219;28;20051;-82
2022/02/09 11:49:57;;;;;;;12.70;7.28;;;;;;;2.37;100.00;93984.53;4987993;28;20605;-82
2022/02/09 12:10:27;;;;;;;26.23;12.05;;;;;;;2.68;100.00;93963.94;5076792;28;20044;-81
2022/02/09 12:13:04;;;;;;;36.10;14.57;;;;;;;2.75;100.00;93979.41;5069708;28;20045;-82
2022/02/09 12:16:30;;;;;;;20.90;9.48;;;;;;;2.60;100.00;93953.72;5069394;28;20499;-82
2022/02/09 12:19:10;;;;;;;21.48;8.50;;;;;;;2.82;100.00;93977.13;5069212;28;20048;-82
2022/02/09 12:21:45;;;;;;;27.92;10.10;;;;;;;2.64;100.00;93952.50;5069104;28;20484;-81
2022/02/09 12:24:22;;;;;;;16.27;7.70;;;;;;;2.83;100.00;93979.50;5069400;28;20040;-82
2022/02/09 12:26:57;;;;;;;14.48;6.35;;;;;;;2.76;100.00;93973.41;5069233;28;20052;-82
2022/02/09 12:29:30;;;;;;;18.63;8.88;;;;;;;2.86;100.00;93975.91;5069198;28;20086;-82
2022/02/09 12:31:57;;;;;;;13.15;7.60;;;;;;;2.92;100.00;93991.31;5069183;28;20040;-82
2022/02/09 12:34:25;;;;;;;10.00;4.10;;;;;;;2.71;100.00;93983.97;5069771;28;20143;-82
2022/02/09 12:36:54;;;;;;;9.65;4.40;;;;;;;2.66;100.00;93976.81;5069157;28;20135;-81
2022/02/09 12:39:21;;;;;;;7.50;4.45;;;;;;;2.74;100.00;93965.13;5069751;28;20040;-81
2022/02/09 12:41:49;;;;;;;5.35;3.70;;;;;;;2.74;100.00;93982.91;5077286;28;20047;-82
2022/02/09 12:44:23;;;;;;;8.77;5.22;;;;;;;2.84;100.00;93982.84;5089349;28;20166;-81
2022/02/09 12:46:51;;;;;;;8.43;5.57;;;;;;;2.81;100.00;93989.00;5089295;28;20040;-82
2022/02/09 12:49:21;;;;;;;8.93;5.05;;;;;;;2.88;100.00;94004.44;5089301;28;20036;-82
2022/02/09 12:51:50;;;;;;;6.53;5.05;;;;;;;2.93;100.00;93997.22;5089565;28;20429;-81
2022/02/09 12:54:20;;;;;;;6.72;4.40;;;;;;;2.77;100.00;93992.75;5089253;28;20500;-81
2022/02/09 12:56:50;;;;;;;7.38;4.95;;;;;;;2.83;100.00;93997.28;5089475;28;20040;-82
2022/02/09 12:59:20;;;;;;;6.43;4.45;;;;;;;2.78;100.00;93981.69;5088830;28;20127;-81
2022/02/09 13:01:51;;;;;;;5.30;3.80;;;;;;;2.75;100.00;93977.69;5089361;28;20446;-82
2022/02/09 13:04:32;;;;;;;7.45;4.80;;;;;;;2.77;100.00;93991.03;5091064;28;20052;-82
2022/02/09 13:06:59;;;;;;;7.50;5.07;;;;;;;2.63;100.00;93964.38;5093144;28;20506;-82
2022/02/09 13:09:27;;;;;;;11.35;5.47;;;;;;;2.71;100.00;93948.47;5093503;28;20095;-82
2022/02/09 13:11:54;;;;;;;6.10;4.95;;;;;;;2.86;100.00;93979.22;5093091;28;20047;-82
2022/02/09 13:14:29;;;;;;;8.77;6.18;;;;;;;2.67;100.00;93965.72;5093151;28;20376;-82
2022/02/09 13:54:51;;;;;;;24.38;9.15;;;;;;;2.84;100.00;93993.78;5089784;28;20086;-84
2022/02/09 14:03:13;;;;;;;10.03;6.10;;;;;;;2.66;100.00;94004.72;5090620;28;20106;-83
2022/02/09 14:11:40;;;;;;;10.80;7.40;;;;;;;2.78;100.00;94007.06;5091989;28;20510;-82
2022/02/09 14:47:53;;;;;;;12.38;8.95;;;;;;;2.56;100.00;94029.31;5089945;28;20132;-83
2022/02/09 14:53:06;;;;;;;9.07;6.78;;;;;;;1.95;100.00;93960.41;5089972;28;20403;-84
2022/02/09 14:55:47;;;;;;;20.75;12.15;;;;;;;2.60;100.00;94002.72;5090279;28;20135;-83
2022/02/09 14:58:22;;;;;;;15.23;10.52;;;;;;;2.46;100.00;93993.03;5090298;28;20479;-83
2022/02/09 15:00:58;;;;;;;16.20;7.95;;;;;;;2.81;100.00;94024.50;5090097;28;20044;-83
2022/02/09 15:03:44;;;;;;;11.95;8.07;;;;;;;2.73;100.00;94017.59;5089714;28;20044;-83
2022/02/09 15:06:30;;;;;;;10.52;7.60;;;;;;;2.91;100.00;94022.72;5089773;28;20441;-83
2022/02/09 15:09:04;;;;;;;15.02;9.55;;;;;;;2.51;100.00;93984.06;5089762;28;20211;-83
2022/02/09 15:11:36;;;;;;;19.42;11.82;;;;;;;2.73;100.00;94026.97;5089462;28;20505;-83
2022/02/09 15:14:18;;;;;;;19.10;11.23;;;;;;;2.42;100.00;93984.91;5089816;28;20052;-83
2022/02/09 15:16:57;;;;;;;9.68;7.20;;;;;;;2.61;100.00;94023.81;5089491;28;20043;-83
2022/02/09 15:19:38;;;;;;;11.90;8.77;;;;;;;2.62;100.00;94023.69;5089648;28;20044;-83
2022/02/09 15:22:07;;;;;;;15.85;8.25;;;;;;;2.63;100.00;94021.91;5089798;28;20040;-82
2022/02/09 15:24:39;;;;;;;16.92;7.90;;;;;;;2.49;100.00;94021.44;5088437;28;20075;-81
2022/02/09 15:27:07;;;;;;;14.32;8.85;;;;;;;2.58;100.00;94019.81;5086278;28;20052;-83
2022/02/09 15:29:37;;;;;;;14.40;10.70;;;;;;;2.49;100.00;94010.50;5088518;28;20079;-83
2022/02/09 15:32:12;;;;;;;26.10;14.93;;;;;;;2.31;100.00;93977.50;5089099;28;20040;-82
2022/02/09 15:34:43;;;;;;;21.10;12.02;;;;;;;2.79;100.00;94031.47;5089084;28;20431;-83
2022/02/09 15:37:16;;;;;;;21.48;12.40;;;;;;;2.78;100.00;94023.06;5089359;28;20070;-82
2022/02/09 15:39:45;;;;;;;22.10;11.93;;;;;;;2.74;100.00;93995.59;5089695;28;20466;-83
2022/02/09 15:56:31;;;;;;;14.18;9.43;;;;;;;2.69;100.00;94021.38;5089637;28;20086;-83
2022/02/09 16:24:11;;;;;;;20.15;12.20;;;;;;;3.31;100.00;94066.47;5088630;28;20534;-83
2022/02/09 16:38:01;;;;;;;31.20;19.33;;;;;;;3.28;100.00;94079.44;5089073;28;20055;-83
2022/02/09 16:48:44;;;;;;;59.17;33.35;;;;;;;3.53;100.00;94091.59;5088064;28;20588;-83
2022/02/09 16:51:16;;;;;;;68.32;37.72;;;;;;;3.26;100.00;94055.13;5089073;28;20060;-83
2022/02/09 16:53:56;;;;;;;53.42;31.25;;;;;;;3.39;100.00;94075.91;5088887;28;20547;-83
2022/02/09 16:56:42;;;;;;;50.33;30.98;;;;;;;3.48;100.00;94089.50;5089030;28;20089;-83
2022/02/09 17:18:44;;;;;;;43.83;27.65;;;;;;;2.80;100.00;94012.78;5088883;28;20091;-84
2022/02/09 17:21:12;;;;;;;33.35;21.35;;;;;;;3.53;100.00;94106.81;5067753;28;20511;-84
2022/02/09 17:23:39;;;;;;;18.63;13.70;;;;;;;3.21;100.00;94065.72;5085399;28;20036;-83
2022/02/09 17:26:09;;;;;;;27.08;18.67;;;;;;;3.28;100.00;94086.28;5088591;28;20044;-83
2022/02/09 17:28:36;;;;;;;32.72;20.33;;;;;;;3.65;100.00;94122.66;5088900;28;20134;-83
2022/02/09 17:31:12;;;;;;;29.17;18.52;;;;;;;3.71;100.00;94125.41;5089246;28;20036;-83
2022/02/09 17:33:59;;;;;;;20.45;15.43;;;;;;;3.60;100.00;94118.81;5088923;28;20067;-82
2022/02/09 17:36:40;;;;;;;19.48;13.57;;;;;;;3.13;100.00;94053.75;5089086;28;20051;-84
2022/02/09 17:39:21;;;;;;;14.85;10.30;;;;;;;3.46;100.00;94122.66;5088976;28;20048;-84
2022/02/09 17:55:54;;;;;;;11.00;8.90;;;;;;;3.02;100.00;94120.72;5092287;28;20127;-84
2022/02/09 17:58:27;;;;;;;19.20;12.07;;;;;;;3.05;100.00;94142.47;5090821;28;20074;-84
2022/02/09 18:00:55;;;;;;;18.38;14.10;;;;;;;2.95;100.00;94137.44;5072175;28;20064;-84
2022/02/09 18:03:22;;;;;;;25.95;18.15;;;;;;;3.00;100.00;94139.59;5071978;28;20037;-84
2022/02/09 18:05:51;;;;;;;30.58;20.27;;;;;;;2.80;100.00;94116.81;5071750;28;20052;-84
2022/02/09 18:08:23;;;;;;;48.42;27.70;;;;;;;2.29;100.00;94068.91;5071986;28;20127;-84
2022/02/09 18:11:01;;;;;;;47.42;28.65;;;;;;;2.84;100.00;94143.50;5072623;28;20458;-84
2022/02/09 18:30:33;;;;;;;21.38;12.77;;;;;;;2.29;100.00;94108.66;5072507;28;20399;-84
2022/02/09 18:33:35;;;;;;;50.25;28.73;;;;;;;2.57;100.00;94139.16;5071851;28;20048;-84
2022/02/09 18:44:20;;;;;;;82.72;40.40;;;;;;;2.62;100.00;94149.69;5071781;28;20053;-84
2022/02/09 19:03:31;;;;;;;21.23;15.27;;;;;;;2.61;100.00;94155.72;5056132;28;20562;-84
2022/02/09 19:06:01;;;;;;;12.80;9.50;;;;;;;2.66;100.00;94156.91;5071131;28;20503;-84
2022/02/09 19:08:50;;;;;;;11.93;8.70;;;;;;;2.26;100.00;94100.38;5071202;28;20052;-84
2022/02/09 19:14:15;;;;;;;8.43;6.28;;;;;;;2.59;100.00;94163.44;5039395;28;20048;-83
2022/02/09 19:16:52;;;;;;;8.45;7.18;;;;;;;2.55;100.00;94152.00;5070473;28;20048;-83
2022/02/09 19:19:35;;;;;;;7.93;6.35;;;;;;;2.52;100.00;94142.94;5070479;28;20107;-83
2022/02/09 19:30:39;;;;;;;16.25;10.93;;;;;;;2.53;100.00;94174.97;5070072;28;20078;-84
2022/02/09 19:47:06;;;;;;;10.00;7.60;;;;;;;2.75;100.00;94177.31;5069433;28;20048;-85
2022/02/09 19:52:30;;;;;;;15.20;10.27;;;;;;;2.83;100.00;94179.16;5067902;28;20059;-85
2022/02/09 19:55:08;;;;;;;14.30;10.80;;;;;;;2.86;100.00;94179.69;5069985;28;20172;-85
2022/02/09 19:57:37;;;;;;;15.60;11.38;;;;;;;2.74;100.00;94185.88;5069527;28;20044;-86
2022/02/09 20:00:06;;;;;;;17.98;12.15;;;;;;;2.70;100.00;94184.53;5085964;28;20051;-86
2022/02/09 20:02:34;;;;;;;17.35;12.32;;;;;;;2.61;100.00;94184.41;5089741;28;20127;-86
2022/02/09 20:05:02;;;;;;;15.02;10.93;;;;;;;2.19;100.00;94121.34;5089934;28;20081;-86
2022/02/09 20:07:31;;;;;;;15.30;10.98;;;;;;;2.57;100.00;94182.28;5090189;28;20048;-85
2022/02/09 20:09:58;;;;;;;20.42;15.40;;;;;;;2.14;100.00;94111.63;5089705;28;20487;-85
2022/02/09 20:12:25;;;;;;;100.90;59.90;;;;;;;2.11;100.00;94117.75;5089346;28;20475;-85
2022/02/09 20:14:52;;;;;;;156.82;115.60;;;;;;;2.49;100.00;94175.34;5090030;28;20492;-85
2022/02/09 20:17:19;;;;;;;45.60;32.83;;;;;;;2.46;100.00;94168.03;5089629;28;20044;-84
2022/02/09 20:19:54;;;;;;;396.77;272.17;;;;;;;2.18;100.00;94134.97;5090030;28;20044;-86
2022/02/09 20:22:21;;;;;;;39.55;25.83;;;;;;;2.42;100.00;94179.38;5089571;28;20044;-84
2022/02/09 20:24:49;;;;;;;36.35;22.88;;;;;;;2.42;100.00;94186.97;5089849;28;20146;-84
2022/02/09 20:27:20;;;;;;;21.55;15.02;;;;;;;2.47;100.00;94189.91;5089731;28;20122;-83
2022/02/09 20:29:47;;;;;;;14.73;10.18;;;;;;;2.51;100.00;94186.94;5089884;28;20048;-84
2022/02/09 20:32:19;;;;;;;78.80;51.40;;;;;;;2.47;100.00;94185.66;5089853;28;20044;-84
2022/02/09 20:34:53;;;;;;;21.90;13.27;;;;;;;2.20;100.00;94144.03;5089845;28;20047;-84
2022/02/09 20:37:22;;;;;;;92.05;52.03;;;;;;;2.17;100.00;94133.38;5089538;28;20075;-85
2022/02/09 20:40:03;;;;;;;23.30;15.68;;;;;;;2.54;100.00;94199.38;5089467;28;20036;-83
2022/02/09 20:42:30;;;;;;;15.07;10.40;;;;;;;2.52;100.00;94201.25;5089730;28;20079;-84
2022/02/09 20:45:02;;;;;;;18.27;13.60;;;;;;;2.52;100.00;94201.25;5089177;28;20491;-84
2022/02/09 20:47:30;;;;;;;11.88;8.57;;;;;;;2.52;100.00;94205.53;5089693;28;20040;-84
2022/02/09 20:49:57;;;;;;;24.83;16.42;;;;;;;2.44;100.00;94185.13;5089016;28;20043;-84
2022/02/09 20:52:24;;;;;;;14.52;10.60;;;;;;;2.64;100.00;94198.56;5086408;28;20105;-85
2022/02/09 20:54:52;;;;;;;18.77;14.20;;;;;;;2.38;100.00;94156.00;5089111;28;20391;-84